Jodoigne, Belgium
Current Conditions -  °F | °C
As of 1:35 AM on Tuesday 27 Jan 2015 (Local Time) from EBBE Reporting Station
Broken Clouds Broken Clouds  
Wind Chill: 36°   Ceiling: 3900
Heat Index: 39°   Visibility: 5mi
Dew Point: 36°   Wind: 5mph
Humidity: 87%   Direction: 350°N
Pressure: 30.21"   Gusts: NA
Location:  50.72°N, 4.87°E
Report Text: EBBE 270035Z AUTO 35004KT 8000 FEW014/// SCT024/// BKN039/// 04/02 Q1023 WHT
Loading
Personal Weather Stations






























Interactive Weather Map New forecast layout! Learn more

10-Day Weather Forecast

Advertisements
Track Severe Weather on mobile